createdAt,value
2018-11-23T07:58:22.628Z,20.60
2018-11-23T08:00:51.836Z,20.33
2018-11-23T08:03:21.077Z,20.97
2018-11-23T08:05:50.363Z,21.13
2018-11-23T08:08:19.573Z,20.80
2018-11-23T08:10:47.924Z,19.40
2018-11-23T08:13:17.138Z,22.27
2018-11-23T08:15:46.372Z,22.33
2018-11-23T08:18:15.618Z,20.90
2018-11-23T08:20:44.901Z,22.10
2018-11-23T08:23:14.114Z,21.50
2018-11-23T08:25:43.318Z,22.60
2018-11-23T08:28:12.536Z,21.30
2018-11-23T08:30:41.724Z,21.90
2018-11-23T08:33:11.345Z,21.57
2018-11-23T08:35:40.558Z,23.37
2018-11-23T08:38:10.128Z,20.77
2018-11-23T08:40:39.303Z,23.53
2018-11-23T08:43:08.869Z,21.23
2018-11-23T08:45:38.062Z,20.60
2018-11-23T08:48:07.429Z,20.50
2018-11-23T08:50:36.620Z,21.40
2018-11-23T08:53:05.992Z,21.97
2018-11-23T08:55:35.239Z,23.00
2018-11-23T08:58:04.502Z,20.63
2018-11-23T09:00:33.791Z,22.40
2018-11-23T09:03:03.528Z,21.65
2018-11-23T09:05:32.745Z,21.30
2018-11-23T09:08:01.945Z,20.07
2018-11-23T09:10:31.324Z,22.33
2018-11-23T09:13:02.065Z,22.07
2018-11-23T09:15:31.257Z,19.43
2018-11-23T09:18:00.464Z,21.33
2018-11-23T09:20:29.763Z,21.03
2018-11-23T09:22:58.969Z,19.93
2018-11-23T09:25:28.160Z,20.23
2018-11-23T09:27:57.415Z,20.10
2018-11-23T09:30:27.102Z,21.57
2018-11-23T09:32:57.008Z,21.33
2018-11-23T09:35:26.737Z,22.40
2018-11-23T09:37:55.976Z,21.50
2018-11-23T09:40:26.356Z,23.20
2018-11-23T09:42:56.065Z,22.10
2018-11-23T09:45:27.455Z,22.30
2018-11-23T09:47:59.067Z,21.07
2018-11-23T09:50:28.748Z,20.50
2018-11-23T09:52:59.284Z,21.30
2018-11-23T09:55:29.452Z,21.57
2018-11-23T09:57:58.695Z,22.63
2018-11-23T10:00:29.502Z,21.10
2018-11-23T10:02:59.296Z,21.60
2018-11-23T10:05:29.311Z,22.37
2018-11-23T10:07:59.881Z,21.23
2018-11-23T10:10:29.522Z,23.97
2018-11-23T10:12:58.729Z,23.60
2018-11-23T10:15:29.040Z,23.02
2018-11-23T10:17:58.337Z,24.03
2018-11-23T10:20:28.932Z,21.57
2018-11-23T10:22:58.103Z,22.63
2018-11-23T10:25:29.449Z,20.10
2018-11-23T10:27:58.851Z,22.42
2018-11-23T10:30:30.431Z,21.30
2018-11-23T10:33:00.964Z,21.13
2018-11-23T10:35:30.366Z,21.90
2018-11-23T10:38:00.893Z,23.30
2018-11-23T10:40:31.655Z,21.53
2018-11-23T10:43:00.951Z,21.67
2018-11-23T10:45:31.420Z,22.83
2018-11-23T10:48:01.572Z,22.13
2018-11-23T10:50:32.186Z,21.48
2018-11-23T10:53:01.368Z,23.13
2018-11-23T10:55:31.832Z,20.43
2018-11-23T10:58:01.172Z,22.70
2018-11-23T11:00:36.765Z,20.23
2018-11-23T11:03:14.097Z,20.30
2018-11-23T11:05:49.538Z,21.23
2018-11-23T11:08:20.064Z,22.07
2018-11-23T11:10:50.248Z,20.20
2018-11-23T11:13:19.488Z,20.47
2018-11-23T11:15:48.681Z,21.17
2018-11-23T11:18:17.919Z,22.37
2018-11-23T11:20:47.122Z,19.90
2018-11-23T11:23:16.338Z,21.10
2018-11-23T11:25:45.537Z,18.93
2018-11-23T11:28:14.735Z,19.97
2018-11-23T11:30:43.944Z,20.70
2018-11-23T11:33:13.127Z,20.97
2018-11-23T11:35:42.369Z,19.20
2018-11-23T11:38:11.577Z,20.17
2018-11-23T11:40:40.764Z,20.03
2018-11-23T11:43:10.736Z,19.40
2018-11-23T11:45:40.668Z,17.20
2018-11-23T11:48:10.832Z,17.60
2018-11-23T11:50:40.059Z,19.10
2018-11-23T11:53:09.554Z,20.85
2018-11-23T11:55:38.767Z,20.03
2018-11-23T11:58:09.930Z,17.93
2018-11-23T12:00:39.171Z,17.33
2018-11-23T12:03:08.730Z,15.53
2018-11-23T12:05:38.487Z,17.57
2018-11-23T12:08:07.835Z,16.90
2018-11-23T12:10:37.112Z,16.73
2018-11-23T12:13:06.362Z,16.77
2018-11-23T12:15:35.579Z,18.53
2018-11-23T12:18:04.797Z,16.23
2018-11-23T12:20:34.026Z,17.07
2018-11-23T12:23:03.204Z,16.40
2018-11-23T12:25:32.424Z,17.40
2018-11-23T12:28:01.590Z,16.00
2018-11-23T12:30:30.788Z,15.10
2018-11-23T12:32:59.969Z,15.53
2018-11-23T12:35:29.194Z,16.80
2018-11-23T12:37:58.383Z,16.23
2018-11-23T12:40:27.640Z,15.63
2018-11-23T12:42:56.880Z,17.17
2018-11-23T12:45:26.072Z,15.33
2018-11-23T12:47:55.269Z,14.95
2018-11-23T12:50:24.708Z,16.03
2018-11-23T12:52:53.920Z,15.47
2018-11-23T12:55:23.104Z,15.57
2018-11-23T12:57:52.340Z,15.40
2018-11-23T13:00:27.766Z,15.60
2018-11-23T13:02:58.610Z,15.90
2018-11-23T13:05:28.640Z,15.10
2018-11-23T13:07:59.061Z,14.27
2018-11-23T13:10:28.635Z,14.30
2018-11-23T13:12:58.433Z,14.35
2018-11-23T13:15:27.670Z,15.63
2018-11-23T13:18:00.524Z,13.28
2018-11-23T13:20:29.730Z,14.33
2018-11-23T13:22:58.965Z,15.30
2018-11-23T13:25:29.822Z,13.67
2018-11-23T13:27:59.149Z,15.93
2018-11-23T13:30:29.853Z,12.70
2018-11-23T13:32:59.035Z,14.07
2018-11-23T13:35:28.217Z,12.13
2018-11-23T13:37:57.462Z,13.50
2018-11-23T13:40:27.608Z,12.98
2018-11-23T13:42:57.735Z,13.20
2018-11-23T13:45:29.327Z,13.97
2018-11-23T13:47:58.548Z,14.13
2018-11-23T13:50:28.128Z,12.70
2018-11-23T13:52:59.760Z,10.27
2018-11-23T13:55:30.720Z,10.77
2018-11-23T13:58:01.294Z,11.65
2018-11-23T14:00:30.397Z,10.43
2018-11-23T14:02:59.608Z,11.67
2018-11-23T14:05:30.512Z,11.90
2018-11-23T14:08:01.496Z,11.38
2018-11-23T14:10:31.027Z,11.27
2018-11-23T14:13:00.349Z,11.00
2018-11-23T14:15:30.761Z,11.83
2018-11-23T14:18:00.520Z,10.97
2018-11-23T14:20:29.969Z,13.20
2018-11-23T14:22:59.172Z,11.13
2018-11-23T14:25:29.819Z,11.08
2018-11-23T14:27:59.224Z,11.70
2018-11-23T14:30:29.848Z,10.50
2018-11-23T14:32:59.377Z,10.40
2018-11-23T14:35:29.874Z,10.87
2018-11-23T14:38:00.296Z,9.65
2018-11-23T14:40:29.496Z,10.25
2018-11-23T14:42:58.881Z,11.70
2018-11-23T14:45:31.553Z,10.70
2018-11-23T14:48:03.401Z,11.67
2018-11-23T14:50:33.762Z,11.10
2018-11-23T14:53:02.944Z,11.67
2018-11-23T14:55:32.344Z,12.83
2018-11-23T14:58:01.551Z,13.73
2018-11-23T15:00:33.070Z,11.90
2018-11-23T15:03:03.016Z,11.20
2018-11-23T15:05:32.280Z,11.53
2018-11-23T15:08:02.230Z,10.87
2018-11-23T15:10:32.464Z,11.20
2018-11-23T15:13:02.574Z,11.90
2018-11-23T15:15:33.251Z,12.00
2018-11-23T15:18:02.559Z,11.33
2018-11-23T15:20:36.178Z,12.40
2018-11-23T15:23:07.408Z,12.53
2018-11-23T15:25:36.646Z,12.30
2018-11-23T15:28:06.785Z,13.95
2018-11-23T15:30:37.016Z,13.20
2018-11-23T15:33:07.077Z,13.40
2018-11-23T15:35:36.951Z,12.70
2018-11-23T15:38:10.361Z,13.10
2018-11-23T15:40:36.733Z,11.67
2018-11-23T15:43:07.338Z,13.10
2018-11-23T15:45:36.755Z,14.00
2018-11-23T15:48:06.852Z,13.10
2018-11-23T15:50:37.294Z,13.20
2018-11-23T15:53:08.190Z,14.13
2018-11-23T15:55:38.561Z,14.97
2018-11-23T15:58:09.860Z,15.30
2018-11-23T16:00:40.292Z,14.38
2018-11-23T16:03:10.718Z,13.53
2018-11-23T16:05:40.265Z,12.63
2018-11-23T16:08:11.998Z,14.43
2018-11-23T16:10:41.232Z,14.33
2018-11-23T16:13:11.694Z,12.97
2018-11-23T16:15:40.914Z,13.80
2018-11-23T16:18:10.476Z,13.48
2018-11-23T16:20:41.406Z,12.80
2018-11-23T16:23:13.382Z,14.73
2018-11-23T16:25:43.192Z,16.83
2018-11-23T16:28:13.128Z,14.80
2018-11-23T16:30:43.592Z,14.10
2018-11-23T16:33:15.116Z,12.73
2018-11-23T16:35:45.029Z,11.83
2018-11-23T16:38:15.829Z,12.40
2018-11-23T16:40:46.686Z,13.73
2018-11-23T16:43:16.563Z,13.77
2018-11-23T16:45:46.379Z,14.87
2018-11-23T16:48:16.729Z,14.57
2018-11-23T16:50:46.793Z,15.45
2018-11-23T16:53:16.052Z,14.77
2018-11-23T16:55:45.329Z,13.60
2018-11-23T16:58:14.856Z,14.40
2018-11-23T17:00:45.678Z,14.17
2018-11-23T17:03:16.792Z,17.07
2018-11-23T17:05:50.375Z,16.07
2018-11-23T17:08:19.592Z,16.60
2018-11-23T17:10:48.807Z,15.23
2018-11-23T17:13:18.075Z,15.87
2018-11-23T17:15:47.355Z,15.57
2018-11-23T17:18:16.549Z,13.50
2018-11-23T17:20:45.782Z,15.10
2018-11-23T17:23:15.312Z,15.03
2018-11-23T17:25:44.578Z,14.80
2018-11-23T17:28:14.145Z,14.30
2018-11-23T17:30:43.390Z,15.03
2018-11-23T17:33:13.065Z,16.03
2018-11-23T17:35:42.305Z,15.80
2018-11-23T17:38:11.517Z,15.43
2018-11-23T17:40:41.518Z,14.30
2018-11-23T17:43:11.184Z,17.77
2018-11-23T17:45:40.414Z,15.20
2018-11-23T17:48:09.921Z,14.73
2018-11-23T17:50:40.099Z,14.83
2018-11-23T17:53:09.762Z,15.93
2018-11-23T17:55:39.011Z,16.77
2018-11-23T17:58:08.263Z,13.90
2018-11-23T18:00:39.153Z,16.97
2018-11-23T18:03:07.545Z,16.03
2018-11-23T18:05:36.882Z,14.97
2018-11-23T18:08:06.296Z,14.50
2018-11-23T18:10:35.821Z,14.73
2018-11-23T18:13:05.221Z,14.03
2018-11-23T18:15:35.386Z,14.97
2018-11-23T18:18:05.475Z,15.30
2018-11-23T18:20:35.133Z,13.97
2018-11-23T18:23:04.812Z,14.47
2018-11-23T18:25:36.684Z,16.03
2018-11-23T18:28:05.949Z,15.30
2018-11-23T18:30:35.314Z,13.50
2018-11-23T18:33:06.943Z,13.37
2018-11-23T18:35:36.266Z,14.90
2018-11-23T18:38:05.589Z,14.73
2018-11-23T18:40:37.240Z,16.00
2018-11-23T18:43:04.108Z,18.50
2018-11-23T18:45:33.310Z,17.73
2018-11-23T18:48:02.523Z,16.27
2018-11-23T18:50:31.707Z,16.33
2018-11-23T18:53:00.960Z,15.90
2018-11-23T18:55:30.130Z,15.97
2018-11-23T18:57:59.399Z,16.48
2018-11-23T19:00:28.661Z,16.50
2018-11-23T19:02:57.978Z,16.10
2018-11-23T19:05:27.962Z,16.30
2018-11-23T19:07:57.264Z,15.80
2018-11-23T19:10:26.573Z,17.10
2018-11-23T19:12:55.789Z,16.40
2018-11-23T19:15:25.880Z,15.50
2018-11-23T19:17:54.269Z,14.37
2018-11-23T19:20:23.837Z,13.85
2018-11-23T19:22:54.957Z,14.30
2018-11-23T19:25:24.211Z,13.43
2018-11-23T19:27:53.448Z,13.53
2018-11-23T19:30:28.634Z,14.00
2018-11-23T19:32:53.772Z,13.90
2018-11-23T19:35:23.034Z,14.80
2018-11-23T19:37:52.281Z,12.67
2018-11-23T19:40:21.470Z,13.60
2018-11-23T19:42:50.670Z,13.17
2018-11-23T19:45:20.098Z,13.67
2018-11-23T19:47:49.433Z,16.00
2018-11-23T19:50:19.363Z,13.70
2018-11-23T19:52:48.562Z,14.10
2018-11-23T19:55:18.798Z,13.40
2018-11-23T19:57:48.078Z,12.63
2018-11-23T20:00:20.476Z,15.30
2018-11-23T20:02:49.735Z,15.37
2018-11-23T20:05:19.955Z,15.00
2018-11-23T20:07:51.300Z,13.62
2018-11-23T20:10:21.671Z,13.57
2018-11-23T20:12:57.976Z,13.40
2018-11-23T20:15:27.300Z,13.13
2018-11-23T20:17:56.651Z,14.80
2018-11-23T20:20:25.878Z,13.13
2018-11-23T20:22:55.123Z,13.23
2018-11-23T20:25:24.481Z,14.00
2018-11-23T20:27:53.979Z,13.47
2018-11-23T20:30:23.158Z,14.30
2018-11-23T20:32:52.372Z,14.70
2018-11-23T20:35:22.518Z,14.17
2018-11-23T20:37:51.751Z,13.70
2018-11-23T20:40:22.344Z,15.72
2018-11-23T20:42:51.743Z,14.33
2018-11-23T20:45:21.050Z,15.23
2018-11-23T20:47:50.345Z,15.50
2018-11-23T20:50:20.150Z,14.90
2018-11-23T20:52:49.448Z,13.73
2018-11-23T20:55:20.021Z,14.23
2018-11-23T20:57:49.184Z,14.73
2018-11-23T21:00:19.811Z,15.27
2018-11-23T21:02:50.039Z,14.90
2018-11-23T21:05:20.353Z,13.93
2018-11-23T21:07:49.659Z,16.20
2018-11-23T21:10:22.884Z,14.40
2018-11-23T21:12:52.217Z,13.87
2018-11-23T21:15:35.859Z,15.53
2018-11-23T21:18:06.416Z,14.40
2018-11-23T21:20:35.642Z,13.77
2018-11-23T21:23:04.913Z,14.77
2018-11-23T21:25:34.125Z,13.07
2018-11-23T21:28:03.342Z,12.07
2018-11-23T21:30:32.559Z,11.60
2018-11-23T21:33:01.844Z,12.50
2018-11-23T21:35:31.073Z,13.57
2018-11-23T21:38:00.357Z,11.60
2018-11-23T21:40:29.600Z,12.27
2018-11-23T21:42:59.806Z,13.40
2018-11-23T21:45:28.988Z,13.20
2018-11-23T21:47:58.194Z,12.60
2018-11-23T21:50:27.384Z,13.03
2018-11-23T21:52:56.712Z,14.03
2018-11-23T21:55:26.030Z,14.07
2018-11-23T21:57:56.122Z,14.13
2018-11-23T22:00:25.382Z,13.50
2018-11-23T22:02:54.932Z,13.80
2018-11-23T22:05:24.207Z,13.75
2018-11-23T22:07:53.421Z,14.63
2018-11-23T22:10:22.632Z,13.25
2018-11-23T22:12:51.891Z,13.27
2018-11-23T22:15:22.918Z,13.67
2018-11-23T22:17:53.185Z,11.67
2018-11-23T22:20:22.898Z,13.63
2018-11-23T22:22:52.131Z,12.03
2018-11-23T22:25:22.143Z,13.20
2018-11-23T22:27:51.904Z,12.70
2018-11-23T22:30:24.754Z,13.80
2018-11-23T22:32:53.957Z,13.63
2018-11-23T22:35:26.432Z,13.63
2018-11-23T22:37:55.681Z,13.93
2018-11-23T22:40:24.871Z,13.23
2018-11-23T22:42:56.302Z,14.17
2018-11-23T22:45:25.550Z,13.60
2018-11-23T22:47:54.759Z,13.77
2018-11-23T22:50:25.334Z,13.55
2018-11-23T22:52:54.584Z,13.00
2018-11-23T22:55:23.762Z,16.17
2018-11-23T22:57:53.008Z,15.27
2018-11-23T23:00:30.612Z,14.60
2018-11-23T23:02:59.859Z,13.80
2018-11-23T23:05:31.952Z,16.37
2018-11-23T23:08:01.149Z,14.90
2018-11-23T23:10:30.368Z,15.27
2018-11-23T23:12:59.582Z,14.40
2018-11-23T23:15:28.896Z,16.60
2018-11-23T23:17:58.115Z,15.10
2018-11-23T23:20:27.340Z,16.77
2018-11-23T23:22:56.597Z,15.20
2018-11-23T23:25:27.394Z,15.70
2018-11-23T23:27:59.474Z,14.90
2018-11-23T23:30:28.727Z,15.73
2018-11-23T23:32:58.276Z,15.78
2018-11-23T23:35:27.610Z,14.87
2018-11-23T23:37:56.796Z,15.30
2018-11-23T23:40:26.032Z,16.23
2018-11-23T23:42:55.346Z,14.85
2018-11-23T23:45:24.609Z,15.97
2018-11-23T23:47:53.807Z,14.93
2018-11-23T23:50:23.044Z,17.90
2018-11-23T23:52:52.242Z,15.58
2018-11-23T23:55:21.461Z,15.80
2018-11-23T23:57:50.754Z,15.47
